Time;durP1;ratioP1;P1;durP2;ratioP2;P2;SDS_P1;SDS_P2;PMS_P1;PMS_P2;Temp;Humidity;BMP_temperature;BMP_pressure;BME280_temperature;BME280_humidity;BME280_pressure;Samples;Min_cycle;Max_cycle;Signal;HPM_P1;HPM_P2
2022/08/10 00:02:12;;;;;;;5.10;3.00;;;23.90;38.40;;;;;;4996883;28;20053;-46
2022/08/10 00:04:39;;;;;;;2.90;2.38;;;23.80;38.30;;;;;;5003124;28;20053;-48
2022/08/10 00:07:07;;;;;;;3.95;2.50;;;23.80;38.60;;;;;;5004864;28;20065;-47
2022/08/10 00:09:34;;;;;;;5.35;2.50;;;23.80;38.70;;;;;;5000445;28;20066;-47
2022/08/10 00:12:03;;;;;;;4.15;2.40;;;23.80;38.70;;;;;;4999128;28;20064;-45
2022/08/10 00:14:30;;;;;;;2.85;2.40;;;23.70;38.70;;;;;;4997799;28;20395;-46
2022/08/10 00:16:58;;;;;;;3.70;2.65;;;23.70;38.60;;;;;;5001775;28;20057;-47
2022/08/10 00:19:25;;;;;;;3.55;2.67;;;23.70;38.70;;;;;;5002319;28;20065;-48
2022/08/10 00:21:52;;;;;;;3.28;2.38;;;23.60;38.60;;;;;;4996289;28;20061;-47
2022/08/10 00:24:19;;;;;;;3.70;2.40;;;23.60;38.70;;;;;;5000907;28;20906;-48
2022/08/10 00:26:47;;;;;;;3.53;2.80;;;23.60;38.80;;;;;;5002334;28;20600;-45
2022/08/10 00:29:15;;;;;;;3.67;2.53;;;23.50;38.80;;;;;;5001967;28;20053;-47
2022/08/10 00:31:42;;;;;;;3.33;2.55;;;23.50;39.40;;;;;;4990690;28;20054;-46
2022/08/10 00:34:09;;;;;;;4.20;2.35;;;23.50;38.90;;;;;;5004737;28;20060;-47
2022/08/10 00:36:37;;;;;;;4.50;2.35;;;23.50;38.90;;;;;;5002667;28;20057;-48
2022/08/10 00:39:04;;;;;;;5.30;2.78;;;23.40;39.00;;;;;;5000212;28;20430;-47
2022/08/10 00:41:31;;;;;;;6.00;2.67;;;23.40;39.10;;;;;;4997417;28;20053;-48
2022/08/10 00:43:58;;;;;;;7.60;2.60;;;23.40;39.10;;;;;;5000084;28;20493;-49
2022/08/10 00:46:27;;;;;;;3.60;2.50;;;23.40;39.10;;;;;;5002075;28;20425;-45
2022/08/10 00:48:54;;;;;;;3.53;2.33;;;23.30;39.60;;;;;;5002282;28;20065;-49
2022/08/10 00:51:22;;;;;;;3.38;2.53;;;23.30;39.30;;;;;;4990320;28;20532;-46
2022/08/10 00:53:49;;;;;;;2.72;2.00;;;23.30;39.40;;;;;;5002032;28;20050;-47
2022/08/10 00:56:16;;;;;;;3.05;2.75;;;23.30;39.40;;;;;;5002495;28;20490;-48
2022/08/10 00:58:43;;;;;;;2.72;2.40;;;23.20;39.30;;;;;;5001422;28;20057;-48
2022/08/10 01:01:11;;;;;;;4.13;2.45;;;23.20;39.40;;;;;;4994812;28;20062;-46
2022/08/10 01:03:39;;;;;;;3.85;2.70;;;23.20;39.50;;;;;;5001972;28;20053;-48
2022/08/10 01:06:15;;;;;;;3.75;2.47;;;23.10;39.40;;;;;;5001338;28;20057;-48
2022/08/10 01:08:51;;;;;;;7.70;2.75;;;23.10;39.70;;;;;;5003219;28;20057;-47
2022/08/10 01:11:24;;;;;;;3.03;2.50;;;23.10;39.80;;;;;;4993908;28;20053;-47
2022/08/10 01:13:57;;;;;;;4.00;2.38;;;23.10;39.90;;;;;;5002430;28;20050;-49
2022/08/10 01:16:30;;;;;;;3.60;2.58;;;23.10;40.20;;;;;;5001985;28;20418;-48
2022/08/10 01:19:09;;;;;;;4.47;2.70;;;23.10;40.30;;;;;;5001526;28;20057;-48
2022/08/10 01:21:59;;;;;;;4.75;2.72;;;23.10;40.40;;;;;;4998634;28;20065;-51
2022/08/10 01:25:08;;;;;;;3.40;2.58;;;23.10;40.60;;;;;;5000657;28;20058;-47
2022/08/10 01:27:45;;;;;;;3.85;2.67;;;23.10;40.50;;;;;;4979605;28;20058;-50
2022/08/10 01:30:17;;;;;;;4.85;2.63;;;23.00;40.20;;;;;;4998033;28;20056;-47
2022/08/10 01:32:50;;;;;;;4.22;2.45;;;23.00;40.10;;;;;;5000182;28;20062;-48
2022/08/10 01:38:44;;;;;;;3.30;2.42;;;22.90;40.20;;;;;;4994219;28;20041;-47
2022/08/10 01:41:21;;;;;;;4.93;2.50;;;22.90;40.00;;;;;;4992894;28;20050;-49
2022/08/10 01:43:55;;;;;;;4.38;2.75;;;22.80;40.10;;;;;;4998104;28;20509;-48
2022/08/10 01:46:26;;;;;;;3.08;2.22;;;22.80;40.20;;;;;;5000973;28;20077;-46
2022/08/10 01:48:56;;;;;;;3.22;2.45;;;22.80;40.20;;;;;;4999592;28;20057;-47
2022/08/10 01:51:28;;;;;;;5.28;2.60;;;22.70;40.10;;;;;;4997313;28;20057;-47
2022/08/10 01:53:58;;;;;;;2.92;2.33;;;22.70;40.20;;;;;;4996871;28;20080;-49
2022/08/10 01:56:28;;;;;;;4.20;2.83;;;22.60;40.20;;;;;;4998872;28;20062;-45
2022/08/10 01:58:58;;;;;;;7.97;2.67;;;22.60;40.70;;;;;;5000410;28;20058;-48
2022/08/10 02:01:30;;;;;;;6.05;2.78;;;22.60;40.80;;;;;;4995335;28;20058;-48
2022/08/10 02:04:02;;;;;;;4.95;2.88;;;22.50;40.80;;;;;;4998356;28;20054;-48
2022/08/10 02:06:32;;;;;;;4.05;3.00;;;22.50;40.70;;;;;;5003097;28;20516;-47
2022/08/10 02:09:01;;;;;;;4.03;2.55;;;22.50;40.70;;;;;;5000655;28;20054;-47
2022/08/10 02:11:28;;;;;;;5.75;2.70;;;22.40;40.70;;;;;;4993524;28;20502;-46
2022/08/10 02:13:58;;;;;;;4.97;2.65;;;22.40;40.90;;;;;;4999266;28;20450;-46
2022/08/10 02:16:27;;;;;;;3.83;2.53;;;22.40;40.90;;;;;;5001139;28;20513;-45
2022/08/10 02:18:56;;;;;;;3.28;2.65;;;22.40;40.90;;;;;;5000564;28;20053;-47
2022/08/10 02:21:25;;;;;;;6.43;2.97;;;22.30;41.10;;;;;;4997095;28;20053;-45
2022/08/10 02:23:54;;;;;;;3.80;2.30;;;22.30;41.10;;;;;;4999490;28;20047;-46
2022/08/10 02:26:22;;;;;;;8.23;2.63;;;22.30;41.70;;;;;;5000629;28;20066;-49
2022/08/10 02:28:51;;;;;;;4.18;2.78;;;22.20;41.20;;;;;;4995793;28;20080;-48
2022/08/10 02:31:22;;;;;;;5.75;2.60;;;22.20;41.20;;;;;;4992096;28;20488;-47
2022/08/10 02:33:54;;;;;;;3.70;2.90;;;22.20;41.30;;;;;;5191893;22;20057;-47
2022/08/10 02:36:27;;;;;;;3.85;2.67;;;22.10;41.20;;;;;;5023008;28;20068;-45
2022/08/10 02:38:59;;;;;;;5.80;2.35;;;22.10;41.20;;;;;;5021873;28;20053;-50
2022/08/10 02:41:32;;;;;;;3.35;2.70;;;22.10;41.30;;;;;;5021315;28;20069;-47
2022/08/10 02:44:05;;;;;;;2.95;2.50;;;22.10;41.40;;;;;;5013170;28;20060;-49
2022/08/10 02:46:44;;;;;;;3.53;2.63;;;22.00;41.40;;;;;;5021892;28;20053;-51
2022/08/10 02:49:17;;;;;;;4.55;3.38;;;22.00;41.50;;;;;;5022026;28;20057;-48
2022/08/10 02:51:50;;;;;;;4.50;2.60;;;22.00;41.60;;;;;;5019552;28;20049;-51
2022/08/10 02:54:21;;;;;;;4.55;2.58;;;21.90;41.50;;;;;;5022687;28;20053;-45
2022/08/10 02:56:54;;;;;;;6.78;2.65;;;21.90;41.60;;;;;;5022571;28;20065;-48
2022/08/10 02:59:27;;;;;;;3.72;2.55;;;21.90;41.60;;;;;;5022964;28;20057;-49
2022/08/10 03:01:59;;;;;;;3.45;2.60;;;21.90;41.60;;;;;;5021366;28;20052;-48
2022/08/10 03:04:34;;;;;;;3.28;2.63;;;21.80;41.60;;;;;;5020072;28;20056;-47
2022/08/10 03:07:04;;;;;;;3.92;2.60;;;21.80;41.70;;;;;;5025043;28;20065;-45
2022/08/10 03:09:35;;;;;;;5.70;2.70;;;21.80;41.70;;;;;;5023221;28;20459;-49
2022/08/10 03:12:05;;;;;;;6.00;2.50;;;21.80;41.80;;;;;;5025141;28;20083;-48
2022/08/10 03:14:34;;;;;;;3.75;2.63;;;21.70;41.80;;;;;;5023269;28;20510;-49
2022/08/10 03:17:02;;;;;;;4.28;2.45;;;21.70;41.80;;;;;;5026565;28;20420;-47
2022/08/10 03:19:33;;;;;;;3.60;2.55;;;21.70;41.80;;;;;;5026220;28;20061;-46
2022/08/10 03:22:02;;;;;;;3.67;2.40;;;21.70;41.90;;;;;;5021567;28;20480;-47
2022/08/10 03:24:31;;;;;;;5.57;2.83;;;21.70;41.90;;;;;;5018305;28;20408;-49
2022/08/10 03:26:59;;;;;;;4.88;2.42;;;21.60;42.00;;;;;;5023786;28;20062;-47
2022/08/10 03:29:28;;;;;;;5.05;3.03;;;21.60;42.00;;;;;;5023520;28;20121;-49
2022/08/10 03:31:56;;;;;;;4.65;2.85;;;21.60;42.10;;;;;;5021540;28;20503;-48
2022/08/10 03:34:25;;;;;;;5.25;3.05;;;21.60;42.00;;;;;;5024495;28;20065;-49
2022/08/10 03:36:53;;;;;;;4.80;3.03;;;21.60;42.10;;;;;;5023044;28;20801;-51
2022/08/10 03:39:21;;;;;;;3.30;2.50;;;21.50;42.10;;;;;;5022174;28;20160;-47
2022/08/10 03:41:54;;;;;;;3.97;2.95;;;21.50;42.20;;;;;;5021889;28;20053;-46
2022/08/10 03:44:25;;;;;;;3.83;2.67;;;21.50;42.30;;;;;;5020768;28;20060;-45
2022/08/10 03:46:54;;;;;;;5.57;2.95;;;21.50;42.30;;;;;;5007497;28;20600;-48
2022/08/10 03:49:23;;;;;;;4.18;2.55;;;21.50;42.30;;;;;;4983964;28;20509;-50
2022/08/10 03:51:50;;;;;;;4.55;2.65;;;21.40;42.20;;;;;;4984025;28;20509;-46
2022/08/10 03:54:20;;;;;;;4.88;2.92;;;21.40;42.30;;;;;;4981590;28;20508;-46
2022/08/10 03:56:48;;;;;;;3.67;2.63;;;21.40;42.30;;;;;;4984868;28;20065;-51
2022/08/10 03:59:16;;;;;;;4.53;2.90;;;21.40;42.30;;;;;;4981104;28;20050;-50
2022/08/10 04:01:45;;;;;;;7.63;3.67;;;21.40;42.30;;;;;;4983012;28;20054;-48
2022/08/10 04:04:13;;;;;;;6.30;2.47;;;21.40;42.40;;;;;;4983416;28;20053;-49
2022/08/10 04:06:40;;;;;;;4.20;2.70;;;21.30;42.40;;;;;;4983551;28;20055;-47
2022/08/10 04:09:09;;;;;;;5.07;3.25;;;21.30;42.40;;;;;;4983834;28;20061;-46
2022/08/10 04:11:39;;;;;;;7.25;4.30;;;21.30;42.50;;;;;;4979908;28;20058;-46
2022/08/10 04:14:06;;;;;;;7.72;3.55;;;21.30;42.60;;;;;;4980980;28;20069;-46
2022/08/10 04:16:33;;;;;;;3.65;2.97;;;21.30;42.80;;;;;;4983448;28;20405;-47
2022/08/10 04:19:01;;;;;;;3.65;2.63;;;21.30;42.80;;;;;;4979760;28;20065;-49
2022/08/10 04:21:36;;;;;;;4.85;2.58;;;21.30;42.70;;;;;;4982787;28;20069;-45
2022/08/10 04:24:07;;;;;;;6.65;2.85;;;21.20;42.70;;;;;;4983713;28;21368;-49
2022/08/10 04:26:34;;;;;;;5.35;3.00;;;21.20;42.80;;;;;;4982200;28;20061;-47
2022/08/10 04:29:02;;;;;;;4.05;2.65;;;21.20;42.70;;;;;;4977896;28;20070;-51
2022/08/10 04:31:32;;;;;;;7.47;4.25;;;21.20;42.80;;;;;;4981963;28;20421;-45
2022/08/10 04:34:01;;;;;;;6.78;3.65;;;21.20;42.80;;;;;;4984886;28;20061;-48
2022/08/10 04:36:30;;;;;;;7.57;3.10;;;21.20;42.80;;;;;;4982282;28;20421;-47
2022/08/10 04:38:57;;;;;;;4.80;3.67;;;21.20;42.90;;;;;;4982046;28;20062;-48
2022/08/10 04:41:25;;;;;;;4.13;2.80;;;21.10;43.10;;;;;;4984745;28;20069;-48
2022/08/10 04:43:53;;;;;;;5.40;2.70;;;21.10;43.10;;;;;;4983789;28;20417;-46
2022/08/10 04:46:21;;;;;;;3.05;2.13;;;21.10;43.10;;;;;;4984930;28;20057;-47
2022/08/10 04:48:48;;;;;;;4.85;3.15;;;21.10;43.20;;;;;;4983944;28;20050;-50
2022/08/10 04:51:17;;;;;;;3.53;2.78;;;21.10;43.90;;;;;;4970906;28;20054;-46
2022/08/10 04:53:46;;;;;;;4.07;2.53;;;21.10;43.40;;;;;;4973955;28;20065;-46
2022/08/10 04:56:14;;;;;;;2.67;2.22;;;21.10;43.40;;;;;;4983675;28;20498;-47
2022/08/10 04:58:41;;;;;;;3.17;2.35;;;21.10;43.50;;;;;;4982024;28;20050;-48
2022/08/10 05:01:08;;;;;;;3.63;2.55;;;21.10;43.60;;;;;;4983741;28;21215;-46
2022/08/10 05:03:37;;;;;;;3.63;2.30;;;21.10;43.70;;;;;;4984029;28;20457;-49
2022/08/10 05:06:05;;;;;;;4.07;2.33;;;21.20;43.80;;;;;;4983121;28;20494;-48
2022/08/10 05:08:32;;;;;;;5.47;2.60;;;21.20;43.80;;;;;;4983551;28;20512;-46
2022/08/10 05:10:59;;;;;;;4.70;2.90;;;21.20;43.70;;;;;;4983781;28;20046;-47
2022/08/10 05:13:26;;;;;;;3.05;2.40;;;21.20;43.80;;;;;;4972811;28;20051;-50
2022/08/10 05:15:54;;;;;;;4.25;2.50;;;21.20;44.20;;;;;;4972421;28;20050;-46
2022/08/10 05:18:21;;;;;;;5.45;2.83;;;21.20;44.20;;;;;;4973486;28;20077;-48
2022/08/10 05:20:49;;;;;;;8.55;3.22;;;21.20;44.50;;;;;;4972128;28;20054;-45
2022/08/10 05:23:17;;;;;;;4.22;2.92;;;21.20;44.70;;;;;;4975111;28;20054;-49
2022/08/10 05:25:44;;;;;;;6.45;3.28;;;21.30;44.80;;;;;;4972027;28;20050;-48
2022/08/10 05:28:11;;;;;;;3.78;2.72;;;21.30;45.00;;;;;;4971782;28;20834;-50
2022/08/10 05:30:38;;;;;;;4.38;2.63;;;21.30;45.00;;;;;;4969439;28;20414;-47
2022/08/10 05:33:05;;;;;;;7.80;3.17;;;21.30;45.00;;;;;;4971062;28;20058;-50
2022/08/10 05:35:33;;;;;;;5.95;2.70;;;21.30;44.90;;;;;;4970482;28;20699;-47
2022/08/10 05:38:03;;;;;;;4.18;2.90;;;21.30;44.90;;;;;;4970804;28;20073;-49
2022/08/10 05:40:31;;;;;;;4.43;2.70;;;21.30;45.00;;;;;;4967993;28;20055;-48
2022/08/10 05:42:58;;;;;;;3.20;2.42;;;21.40;45.10;;;;;;4972358;28;20069;-46
2022/08/10 05:45:27;;;;;;;3.72;2.72;;;21.40;45.20;;;;;;4970802;28;20062;-45
2022/08/10 05:47:54;;;;;;;3.80;2.42;;;21.40;45.30;;;;;;4975573;28;20057;-48
2022/08/10 05:50:26;;;;;;;4.63;3.15;;;21.40;45.40;;;;;;4975570;28;20050;-46
2022/08/10 05:52:53;;;;;;;3.67;2.65;;;21.50;45.60;;;;;;4983028;28;20069;-52
2022/08/10 05:55:22;;;;;;;5.38;2.83;;;21.50;45.60;;;;;;4982317;28;20083;-49
2022/08/10 05:57:50;;;;;;;4.28;2.65;;;21.50;45.70;;;;;;4981829;28;20417;-47
2022/08/10 06:00:20;;;;;;;4.65;2.55;;;21.50;45.70;;;;;;4981565;28;20050;-52
2022/08/10 06:02:52;;;;;;;4.30;2.80;;;21.50;45.70;;;;;;4981759;28;20066;-46
2022/08/10 06:05:23;;;;;;;4.70;2.70;;;21.60;45.50;;;;;;4966169;28;20418;-49
2022/08/10 06:07:53;;;;;;;3.10;2.70;;;21.60;45.70;;;;;;4962400;28;20061;-48
2022/08/10 06:10:22;;;;;;;3.53;2.95;;;21.70;45.90;;;;;;4965840;28;20061;-49
2022/08/10 06:14:59;;;;;;;3.35;2.50;;;21.70;45.80;;;;;;4967053;28;20065;-50
2022/08/10 06:15:39;;;;;;;3.28;2.70;;;21.80;45.80;;;;;;4967004;28;20073;-47
2022/08/10 06:18:07;;;;;;;4.75;3.20;;;21.80;45.70;;;;;;4973036;28;20054;-45
2022/08/10 06:20:34;;;;;;;4.55;2.90;;;21.90;45.90;;;;;;4971106;28;20057;-47
2022/08/10 06:23:04;;;;;;;4.35;2.78;;;21.90;45.90;;;;;;4972459;28;20069;-46
2022/08/10 06:25:33;;;;;;;8.43;3.15;;;22.00;46.00;;;;;;4973515;28;20058;-49
2022/08/10 06:28:02;;;;;;;4.68;3.20;;;22.00;45.80;;;;;;4970986;28;20073;-46
2022/08/10 06:30:30;;;;;;;8.57;3.28;;;22.00;45.30;;;;;;4970073;28;20116;-45
2022/08/10 06:33:02;;;;;;;3.92;2.53;;;22.10;45.30;;;;;;4969958;28;20061;-50
2022/08/10 06:35:32;;;;;;;8.55;3.03;;;22.10;45.40;;;;;;4970098;28;20058;-45
2022/08/10 06:38:03;;;;;;;4.07;2.70;;;22.20;45.30;;;;;;4969377;28;20065;-48
2022/08/10 06:40:36;;;;;;;6.45;2.85;;;22.20;45.20;;;;;;4965512;28;20081;-49
2022/08/10 06:43:07;;;;;;;4.67;2.70;;;22.20;45.10;;;;;;4970467;28;20054;-50
2022/08/10 06:45:41;;;;;;;4.53;3.00;;;22.30;44.60;;;;;;4970936;28;20414;-47
2022/08/10 06:48:15;;;;;;;4.32;2.40;;;22.30;44.40;;;;;;4971656;28;20062;-49
2022/08/10 06:50:47;;;;;;;4.05;2.50;;;22.30;44.40;;;;;;4968444;28;20395;-47
2022/08/10 06:53:17;;;;;;;4.68;2.67;;;22.40;44.40;;;;;;4969797;28;20081;-47
2022/08/10 06:55:51;;;;;;;7.03;2.65;;;22.40;44.50;;;;;;4966986;28;20096;-49
2022/08/10 06:58:20;;;;;;;;;;;22.50;44.00;;;;;;4971853;28;20050;-52
2022/08/10 07:00:49;;;;;;;5.22;2.33;;;22.50;43.80;;;;;;4981543;28;19926;-49
2022/08/10 07:03:19;;;;;;;5.03;2.70;;;22.60;44.10;;;;;;4981936;28;20053;-50
2022/08/10 07:05:50;;;;;;;6.75;3.50;;;22.60;44.00;;;;;;4978793;28;20406;-49
2022/08/10 07:08:19;;;;;;;7.18;4.80;;;22.70;44.00;;;;;;4968879;28;20524;-50
2022/08/10 07:10:48;;;;;;;13.80;8.10;;;22.70;44.00;;;;;;4970903;28;20940;-48
2022/08/10 07:13:18;;;;;;;7.88;3.80;;;22.80;44.00;;;;;;4969771;28;20050;-49
2022/08/10 07:15:48;;;;;;;4.30;3.45;;;22.80;43.80;;;;;;4969389;28;20054;-49
2022/08/10 07:18:18;;;;;;;5.53;2.83;;;22.90;43.80;;;;;;4972701;28;20058;-50
2022/08/10 07:20:47;;;;;;;9.45;3.40;;;22.90;43.90;;;;;;4971247;28;20517;-48
2022/08/10 07:23:17;;;;;;;6.15;2.80;;;23.00;43.90;;;;;;4972149;28;20062;-50
2022/08/10 07:25:48;;;;;;;5.82;2.95;;;23.10;43.60;;;;;;4971044;28;20054;-46
2022/08/10 07:28:16;;;;;;;6.53;2.50;;;23.10;43.30;;;;;;4968393;28;20533;-48
2022/08/10 07:30:45;;;;;;;3.55;2.65;;;23.20;43.30;;;;;;4969750;28;20054;-48
2022/08/10 07:33:16;;;;;;;5.13;3.03;;;23.30;43.20;;;;;;4970906;28;20062;-47
2022/08/10 07:35:45;;;;;;;5.95;2.70;;;23.30;42.90;;;;;;4969837;28;20419;-51
2022/08/10 07:38:17;;;;;;;7.38;2.70;;;23.40;42.80;;;;;;4970906;28;20053;-45
2022/08/10 07:40:48;;;;;;;7.20;2.75;;;23.50;43.00;;;;;;4968058;28;20058;-46
2022/08/10 07:43:17;;;;;;;8.32;3.28;;;23.60;42.80;;;;;;4970098;28;20061;-48
2022/08/10 07:45:45;;;;;;;7.20;2.88;;;23.60;42.70;;;;;;4971424;28;20699;-51
2022/08/10 07:48:16;;;;;;;6.82;3.00;;;23.70;42.80;;;;;;4974553;28;20054;-47
2022/08/10 07:50:46;;;;;;;4.82;3.25;;;23.70;42.20;;;;;;4974643;28;20451;-52
2022/08/10 07:53:18;;;;;;;5.82;3.63;;;23.80;42.30;;;;;;4974475;28;20054;-46
2022/08/10 07:55:49;;;;;;;8.50;3.30;;;23.90;42.40;;;;;;4955559;28;20058;-48
2022/08/10 07:58:18;;;;;;;10.07;3.10;;;24.00;42.00;;;;;;4982071;28;20046;-51
2022/08/10 08:00:46;;;;;;;4.38;2.90;;;24.10;41.90;;;;;;4974892;28;20430;-48
2022/08/10 08:03:15;;;;;;;7.28;3.13;;;24.10;42.10;;;;;;4978720;28;20522;-47
2022/08/10 08:05:44;;;;;;;6.05;2.55;;;24.20;41.50;;;;;;4977952;28;20058;-49
2022/08/10 08:08:14;;;;;;;3.70;2.83;;;24.30;41.50;;;;;;4983580;28;20077;-47
2022/08/10 08:10:42;;;;;;;4.47;2.67;;;24.40;41.50;;;;;;4977037;28;20058;-49
2022/08/10 08:13:12;;;;;;;3.85;2.20;;;24.40;41.50;;;;;;4974544;28;20046;-49
2022/08/10 08:15:40;;;;;;;6.70;2.95;;;24.50;41.60;;;;;;4975465;28;20415;-48
2022/08/10 08:18:09;;;;;;;7.38;2.63;;;24.60;41.00;;;;;;4976578;28;20050;-49
2022/08/10 08:20:37;;;;;;;3.80;2.50;;;24.70;40.90;;;;;;4973720;28;20077;-48
2022/08/10 08:23:05;;;;;;;5.63;2.58;;;24.80;40.50;;;;;;4974319;28;20073;-47
2022/08/10 08:25:33;;;;;;;3.60;2.65;;;24.80;40.50;;;;;;4975196;28;20050;-48
2022/08/10 08:28:03;;;;;;;4.07;2.75;;;25.00;40.20;;;;;;4974005;28;20408;-51
2022/08/10 08:30:32;;;;;;;5.00;2.55;;;25.10;40.40;;;;;;4974116;28;20424;-47
2022/08/10 08:33:00;;;;;;;5.63;2.60;;;25.20;40.30;;;;;;4975715;28;20054;-48
2022/08/10 08:35:28;;;;;;;3.30;2.30;;;25.20;39.90;;;;;;4974044;28;20062;-46
2022/08/10 08:37:57;;;;;;;2.80;2.17;;;25.30;39.80;;;;;;4975544;28;20053;-50
2022/08/10 08:40:27;;;;;;;5.43;2.78;;;25.40;39.90;;;;;;4974622;28;20058;-52
2022/08/10 08:43:23;;;;;;;4.30;2.78;;;25.50;39.70;;;;;;4975409;28;20972;-47
2022/08/10 08:46:13;;;;;;;5.15;2.42;;;25.60;37.80;;;;;;4975831;28;20054;-47
2022/08/10 08:48:56;;;;;;;3.50;2.17;;;25.70;38.20;;;;;;4976307;28;20057;-49
2022/08/10 08:51:34;;;;;;;4.30;1.83;;;25.80;37.90;;;;;;4972627;28;20054;-51
2022/08/10 08:54:15;;;;;;;7.68;2.35;;;25.90;38.10;;;;;;4974761;28;20054;-48
2022/08/10 08:56:49;;;;;;;6.20;2.47;;;26.00;37.10;;;;;;4974659;28;20058;-51
2022/08/10 08:59:31;;;;;;;4.57;2.53;;;26.10;37.30;;;;;;4974189;28;20050;-52
2022/08/10 09:02:17;;;;;;;5.32;2.33;;;26.20;36.60;;;;;;4975542;28;20050;-47
2022/08/10 09:04:58;;;;;;;6.88;3.17;;;26.30;36.50;;;;;;4976943;28;20499;-49
2022/08/10 09:07:56;;;;;;;4.57;2.67;;;26.40;36.30;;;;;;4974904;28;20056;-47
2022/08/10 09:10:36;;;;;;;5.28;2.30;;;26.50;36.40;;;;;;4955923;28;20069;-50
2022/08/10 09:13:09;;;;;;;4.90;2.40;;;26.70;36.40;;;;;;4973413;28;20058;-50
2022/08/10 09:15:46;;;;;;;3.97;2.10;;;26.70;36.10;;;;;;4973580;28;20055;-48
2022/08/10 09:18:23;;;;;;;4.43;2.30;;;26.80;35.50;;;;;;4974295;28;20050;-51
2022/08/10 09:20:58;;;;;;;2.60;1.70;;;26.90;35.70;;;;;;4977856;28;20061;-51
2022/08/10 09:23:34;;;;;;;3.15;2.10;;;27.00;35.40;;;;;;4975537;28;20414;-50
2022/08/10 09:26:08;;;;;;;4.50;1.95;;;27.10;35.50;;;;;;4974235;28;20062;-55
2022/08/10 09:28:39;;;;;;;5.28;2.38;;;27.10;35.30;;;;;;4971900;28;20050;-47
2022/08/10 09:31:09;;;;;;;3.88;1.90;;;27.10;35.20;;;;;;4977692;28;20069;-50
2022/08/10 09:33:49;;;;;;;6.75;2.15;;;27.20;35.10;;;;;;4973592;28;20050;-50
2022/08/10 09:36:28;;;;;;;5.10;2.25;;;27.30;34.50;;;;;;4974781;28;20062;-50
2022/08/10 09:39:05;;;;;;;2.88;2.00;;;27.40;33.60;;;;;;4973497;28;20053;-50
2022/08/10 09:41:41;;;;;;;5.20;2.17;;;27.50;34.10;;;;;;4973507;28;20058;-47
2022/08/10 09:44:21;;;;;;;3.40;2.20;;;27.50;33.90;;;;;;4971688;28;20057;-49
2022/08/10 09:46:59;;;;;;;6.57;2.10;;;27.60;33.90;;;;;;4972397;28;20482;-46
2022/08/10 09:49:36;;;;;;;7.15;2.10;;;27.70;34.00;;;;;;4971698;28;20054;-48
2022/08/10 09:52:12;;;;;;;4.75;2.58;;;27.70;33.10;;;;;;4965876;28;20062;-47
2022/08/10 09:54:50;;;;;;;4.13;2.45;;;27.80;33.00;;;;;;4976815;28;20050;-49
2022/08/10 09:57:24;;;;;;;3.47;2.13;;;27.80;32.50;;;;;;4952702;28;20081;-47
2022/08/10 10:00:00;;;;;;;3.92;2.25;;;27.90;33.30;;;;;;4966005;28;20053;-48
2022/08/10 10:02:37;;;;;;;4.40;2.50;;;27.90;33.10;;;;;;4973375;28;20058;-47
2022/08/10 10:05:18;;;;;;;5.97;2.33;;;28.00;32.70;;;;;;4975170;28;21558;-47
2022/08/10 10:07:53;;;;;;;5.20;2.20;;;28.10;32.50;;;;;;4975820;28;20069;-46
2022/08/10 10:10:28;;;;;;;3.10;1.90;;;28.10;32.70;;;;;;4973399;28;20062;-45
2022/08/10 10:13:01;;;;;;;3.88;2.45;;;28.20;32.60;;;;;;4974626;28;20058;-47
2022/08/10 10:15:37;;;;;;;2.80;1.95;;;28.30;32.50;;;;;;4965489;28;20434;-47
2022/08/10 10:18:17;;;;;;;3.72;2.30;;;28.30;32.30;;;;;;4978798;28;20053;-46
2022/08/10 10:20:55;;;;;;;4.30;1.85;;;28.30;32.00;;;;;;4980728;28;20054;-49
2022/08/10 10:23:44;;;;;;;3.60;2.22;;;28.30;31.80;;;;;;4981694;28;20058;-46
2022/08/10 10:26:19;;;;;;;3.17;1.90;;;28.40;31.90;;;;;;4978189;28;20046;-46
2022/08/10 10:29:00;;;;;;;5.88;2.38;;;28.40;32.10;;;;;;4978099;28;20066;-49
2022/08/10 10:31:33;;;;;;;2.33;1.95;;;28.50;31.90;;;;;;4971030;28;20054;-48
2022/08/10 10:34:14;;;;;;;3.67;2.15;;;28.50;31.90;;;;;;4978455;28;20046;-47
2022/08/10 10:36:44;;;;;;;3.58;2.25;;;28.60;32.00;;;;;;4981567;28;20062;-47
2022/08/10 10:39:15;;;;;;;2.72;2.00;;;28.60;31.70;;;;;;4982320;28;20061;-46
2022/08/10 10:41:49;;;;;;;5.60;2.03;;;28.60;31.30;;;;;;4979475;28;20061;-51
2022/08/10 10:44:41;;;;;;;3.38;1.98;;;28.70;31.00;;;;;;4981593;28;20395;-49
2022/08/10 10:47:21;;;;;;;5.68;2.30;;;28.70;30.60;;;;;;4979592;28;20058;-49
2022/08/10 10:49:54;;;;;;;2.70;1.73;;;28.70;29.60;;;;;;4979718;28;20379;-54
2022/08/10 10:52:37;;;;;;;4.95;1.95;;;28.80;30.20;;;;;;4981662;28;20066;-49
2022/08/10 10:55:16;;;;;;;6.55;1.90;;;28.80;30.00;;;;;;4982998;28;20054;-49
2022/08/10 10:57:54;;;;;;;10.05;2.08;;;28.90;30.00;;;;;;4981900;28;20061;-47
2022/08/10 11:00:25;;;;;;;3.22;2.00;;;28.90;29.80;;;;;;4979719;28;20051;-49
2022/08/10 11:03:11;;;;;;;3.90;2.00;;;28.90;30.00;;;;;;4981757;28;20486;-46
2022/08/10 11:05:49;;;;;;;5.90;1.83;;;29.00;29.90;;;;;;4982760;28;21501;-45
2022/08/10 11:08:23;;;;;;;3.63;2.20;;;29.00;29.90;;;;;;4982744;28;20062;-51
2022/08/10 11:10:54;;;;;;;4.22;1.95;;;29.10;30.00;;;;;;4981563;28;20054;-50
2022/08/10 11:13:37;;;;;;;2.90;2.15;;;29.10;29.90;;;;;;4981146;28;21517;-49
2022/08/10 11:16:10;;;;;;;3.78;2.00;;;29.10;29.60;;;;;;4982587;28;20062;-50
2022/08/10 11:18:53;;;;;;;2.85;1.60;;;29.10;29.70;;;;;;4982682;28;20529;-47
2022/08/10 11:21:30;;;;;;;6.22;2.20;;;29.20;29.40;;;;;;4984709;28;20054;-51
2022/08/10 11:24:07;;;;;;;4.38;1.75;;;29.20;29.30;;;;;;4983641;28;20050;-44
2022/08/10 11:26:41;;;;;;;4.30;1.88;;;29.20;29.20;;;;;;4986427;28;20081;-48
2022/08/10 11:29:18;;;;;;;3.58;1.80;;;29.20;29.20;;;;;;4984958;28;20051;-46
2022/08/10 11:31:50;;;;;;;2.55;1.55;;;29.20;29.00;;;;;;4983644;28;20062;-45
2022/08/10 11:34:27;;;;;;;3.22;2.08;;;29.30;28.90;;;;;;4986628;28;20066;-48
2022/08/10 11:37:05;;;;;;;1.52;1.42;;;29.30;28.90;;;;;;4983501;28;20054;-47
2022/08/10 11:39:41;;;;;;;2.47;1.85;;;29.30;28.70;;;;;;4984865;28;20423;-46
2022/08/10 11:42:19;;;;;;;11.52;2.10;;;29.30;28.70;;;;;;4983996;28;20061;-50
2022/08/10 11:44:53;;;;;;;2.92;1.60;;;29.40;28.70;;;;;;4985147;28;20379;-47
2022/08/10 11:47:22;;;;;;;;;;;29.40;28.70;;;;;;4985871;28;20054;-45
2022/08/10 11:49:55;;;;;;;3.10;1.70;;;29.40;29.20;;;;;;4983921;28;19925;-47
2022/08/10 11:52:30;;;;;;;3.28;1.75;;;29.50;28.60;;;;;;4985658;28;20055;-48
2022/08/10 11:55:09;;;;;;;2.50;2.10;;;29.50;28.60;;;;;;4985750;28;20409;-47
2022/08/10 11:57:37;;;;;;;2.97;2.08;;;29.50;28.60;;;;;;4980496;28;20065;-48
2022/08/10 12:00:06;;;;;;;4.22;2.03;;;29.50;28.60;;;;;;4982927;28;20123;-46
2022/08/10 12:02:36;;;;;;;1.92;1.67;;;29.50;28.80;;;;;;4983147;28;20418;-45
2022/08/10 12:05:08;;;;;;;2.60;1.88;;;29.60;28.70;;;;;;4985435;28;20065;-47
2022/08/10 12:07:40;;;;;;;2.95;1.70;;;29.60;28.60;;;;;;4985617;28;20101;-46
2022/08/10 12:10:10;;;;;;;3.60;1.90;;;29.70;28.70;;;;;;4981238;28;20402;-47
2022/08/10 12:12:44;;;;;;;2.63;1.88;;;29.70;28.50;;;;;;4983952;28;20050;-44
2022/08/10 12:15:19;;;;;;;2.17;1.98;;;29.70;28.30;;;;;;4984612;28;20050;-47
2022/08/10 12:17:52;;;;;;;2.65;1.67;;;29.80;28.60;;;;;;4985589;28;20421;-47
2022/08/10 12:20:27;;;;;;;1.77;1.40;;;29.80;28.30;;;;;;4982314;28;21674;-45
2022/08/10 12:22:59;;;;;;;2.13;1.67;;;29.90;28.30;;;;;;4984094;28;20062;-46
2022/08/10 12:25:37;;;;;;;3.00;2.08;;;29.90;28.20;;;;;;4983787;28;20062;-49
2022/08/10 12:28:10;;;;;;;4.72;1.80;;;29.90;28.00;;;;;;4981052;28;20047;-48
2022/08/10 12:30:46;;;;;;;5.38;1.95;;;30.00;28.00;;;;;;4982111;28;20069;-49
2022/08/10 12:33:20;;;;;;;3.33;1.77;;;30.00;27.90;;;;;;4984541;28;20058;-47
2022/08/10 12:35:52;;;;;;;3.50;1.90;;;30.00;27.90;;;;;;4985506;28;20065;-49
2022/08/10 12:38:27;;;;;;;4.43;2.17;;;30.00;27.80;;;;;;4981950;28;21096;-49
2022/08/10 12:40:59;;;;;;;2.22;1.67;;;30.00;27.50;;;;;;4978746;28;20050;-50
2022/08/10 12:43:32;;;;;;;2.10;1.73;;;30.00;27.70;;;;;;4980648;28;20065;-46
2022/08/10 12:46:09;;;;;;;4.18;1.70;;;30.00;27.70;;;;;;4978077;28;20050;-45
2022/08/10 12:48:41;;;;;;;3.20;1.50;;;30.10;27.70;;;;;;4980352;28;20065;-47
2022/08/10 12:51:16;;;;;;;3.10;1.50;;;30.00;27.70;;;;;;4979914;28;20058;-46
2022/08/10 12:53:52;;;;;;;5.00;1.80;;;30.10;27.60;;;;;;4977742;28;20058;-46
2022/08/10 12:56:26;;;;;;;2.00;1.60;;;30.10;27.60;;;;;;4980996;28;20050;-49
2022/08/10 12:58:54;;;;;;;1.92;1.55;;;30.10;27.50;;;;;;4978099;28;20410;-47
2022/08/10 13:01:25;;;;;;;2.30;1.83;;;30.10;27.40;;;;;;4979910;28;20057;-52
2022/08/10 13:03:58;;;;;;;3.40;1.70;;;30.10;27.20;;;;;;4978523;28;20057;-48
2022/08/10 13:06:27;;;;;;;4.60;2.05;;;30.10;27.30;;;;;;4980925;28;20069;-50
2022/08/10 13:09:11;;;;;;;5.95;2.05;;;30.20;27.10;;;;;;4979033;28;20054;-54
2022/08/10 13:11:43;;;;;;;7.00;2.20;;;30.20;27.00;;;;;;4980605;28;20058;-50
2022/08/10 13:14:17;;;;;;;2.00;1.80;;;30.30;26.10;;;;;;4981761;28;20062;-57
2022/08/10 13:16:47;;;;;;;5.63;2.47;;;30.30;26.60;;;;;;4984839;28;20062;-58